createdAt,value
2023-01-23T00:00:10.726Z,0.8
2023-01-23T00:03:10.052Z,0.8
2023-01-23T00:06:10.059Z,0.8
2023-01-23T00:09:10.061Z,0.8
2023-01-23T00:12:10.097Z,0.8
2023-01-23T00:15:12.571Z,0.8
2023-01-23T00:18:10.081Z,0.8
2023-01-23T00:21:10.108Z,0.8
2023-01-23T00:24:10.016Z,0.8
2023-01-23T00:27:10.131Z,0.8
2023-01-23T00:30:10.071Z,0.8
2023-01-23T00:33:10.162Z,0.8
2023-01-23T00:36:09.951Z,0.8
2023-01-23T00:39:10.117Z,0.8
2023-01-23T00:42:10.169Z,0.8
2023-01-23T00:45:10.063Z,0.8
2023-01-23T00:48:10.013Z,0.8
2023-01-23T00:51:10.352Z,0.8
2023-01-23T00:54:10.117Z,0.8
2023-01-23T00:57:10.032Z,0.8
2023-01-23T01:00:10.100Z,0.8
2023-01-23T01:03:10.539Z,0.8
2023-01-23T01:06:10.048Z,0.8
2023-01-23T01:09:10.077Z,0.8
2023-01-23T01:12:10.129Z,0.8
2023-01-23T01:15:10.033Z,0.8
2023-01-23T01:18:10.075Z,0.8
2023-01-23T01:21:10.117Z,0.8
2023-01-23T01:24:10.094Z,0.8
2023-01-23T01:27:10.066Z,0.8
2023-01-23T01:30:10.105Z,0.8
2023-01-23T01:33:10.098Z,0.8
2023-01-23T01:36:10.145Z,0.8
2023-01-23T01:39:10.104Z,0.8
2023-01-23T01:42:10.016Z,0.8
2023-01-23T01:45:10.112Z,0.8
2023-01-23T01:48:10.150Z,0.8
2023-01-23T01:51:10.500Z,0.8
2023-01-23T01:54:09.998Z,0.8
2023-01-23T01:57:10.138Z,0.8
2023-01-23T02:00:10.187Z,0.8
2023-01-23T02:03:10.093Z,0.8
2023-01-23T02:06:10.050Z,0.8
2023-01-23T02:09:10.063Z,0.8
2023-01-23T02:12:10.176Z,0.8
2023-01-23T02:15:10.151Z,0.8
2023-01-23T02:18:10.035Z,0.8
2023-01-23T02:21:10.106Z,0.8
2023-01-23T02:24:10.123Z,0.8
2023-01-23T02:27:10.642Z,0.8
2023-01-23T02:30:10.020Z,0.8
2023-01-23T02:33:10.011Z,0.8
2023-01-23T02:36:10.117Z,0.8
2023-01-23T02:39:10.151Z,0.7
2023-01-23T02:42:10.080Z,0.7
2023-01-23T02:45:10.076Z,0.7
2023-01-23T02:48:10.143Z,0.7
2023-01-23T02:51:10.397Z,0.7
2023-01-23T02:54:10.099Z,0.7
2023-01-23T02:57:09.996Z,0.7
2023-01-23T03:00:10.076Z,0.7
2023-01-23T03:03:10.048Z,0.7
2023-01-23T03:06:10.165Z,0.7
2023-01-23T03:09:10.124Z,0.6
2023-01-23T03:12:10.169Z,0.6
2023-01-23T03:15:10.104Z,0.7
2023-01-23T03:18:10.276Z,0.6
2023-01-23T03:21:10.055Z,0.7
2023-01-23T03:24:10.064Z,0.6
2023-01-23T03:27:10.140Z,0.7
2023-01-23T03:30:10.111Z,0.7
2023-01-23T03:33:10.047Z,0.7
2023-01-23T03:36:12.821Z,0.7
2023-01-23T03:39:10.150Z,0.7
2023-01-23T03:42:10.087Z,0.7
2023-01-23T03:45:10.118Z,0.6
2023-01-23T03:48:10.063Z,0.7
2023-01-23T03:51:10.459Z,0.7
2023-01-23T03:54:10.041Z,0.7
2023-01-23T03:57:10.093Z,0.7
2023-01-23T04:00:10.161Z,0.7
2023-01-23T04:03:10.544Z,0.7
2023-01-23T04:06:10.059Z,0.7
2023-01-23T04:09:10.121Z,0.7
2023-01-23T04:12:10.027Z,0.7
2023-01-23T04:15:10.107Z,0.7
2023-01-23T04:18:10.044Z,0.7
2023-01-23T04:21:10.124Z,0.7
2023-01-23T04:24:10.059Z,0.8
2023-01-23T04:27:10.014Z,0.7
2023-01-23T04:30:10.075Z,0.8
2023-01-23T04:33:10.072Z,0.8
2023-01-23T04:36:10.065Z,0.8
2023-01-23T04:39:10.062Z,0.8
2023-01-23T04:42:10.032Z,0.8
2023-01-23T04:45:10.123Z,0.8
2023-01-23T04:48:10.198Z,0.8
2023-01-23T04:51:10.450Z,0.8
2023-01-23T04:54:10.069Z,0.7
2023-01-23T04:57:09.989Z,0.7
2023-01-23T05:00:10.197Z,0.7
2023-01-23T05:03:10.089Z,0.7
2023-01-23T05:06:10.259Z,0.7
2023-01-23T05:09:10.120Z,0.7
2023-01-23T05:12:10.067Z,0.6
2023-01-23T05:15:10.077Z,0.6
2023-01-23T05:18:10.016Z,0.6
2023-01-23T05:21:10.179Z,0.6
2023-01-23T05:24:10.102Z,0.6
2023-01-23T05:27:10.036Z,0.6
2023-01-23T05:30:10.124Z,0.6
2023-01-23T05:33:10.023Z,0.6
2023-01-23T05:36:10.113Z,0.6
2023-01-23T05:39:10.146Z,0.6
2023-01-23T05:42:10.148Z,0.6
2023-01-23T05:45:10.086Z,0.6
2023-01-23T05:48:10.005Z,0.6
2023-01-23T05:51:10.301Z,0.6
2023-01-23T05:54:10.229Z,0.6
2023-01-23T05:57:10.034Z,0.7
2023-01-23T06:00:10.128Z,0.7
2023-01-23T06:03:10.112Z,0.7
2023-01-23T06:06:10.140Z,0.7
2023-01-23T06:09:10.075Z,0.6
2023-01-23T06:12:09.990Z,0.7
2023-01-23T06:15:10.113Z,0.8
2023-01-23T06:18:10.654Z,0.8
2023-01-23T06:21:10.184Z,0.8
2023-01-23T06:24:10.003Z,0.8
2023-01-23T06:27:10.134Z,0.8
2023-01-23T06:30:10.104Z,0.8
2023-01-23T06:33:10.102Z,0.8
2023-01-23T06:36:10.195Z,0.8
2023-01-23T06:39:10.036Z,0.8
2023-01-23T06:42:10.220Z,0.8
2023-01-23T06:45:10.112Z,0.8
2023-01-23T06:48:10.012Z,0.8
2023-01-23T06:51:10.581Z,0.8
2023-01-23T06:54:10.168Z,0.8
2023-01-23T06:57:10.077Z,0.8
2023-01-23T07:00:10.319Z,0.8
2023-01-23T07:03:10.365Z,0.8
2023-01-23T07:06:10.007Z,0.8
2023-01-23T07:09:10.008Z,0.8
2023-01-23T07:12:10.057Z,0.8
2023-01-23T07:15:10.072Z,0.7
2023-01-23T07:18:10.216Z,0.8
2023-01-23T07:21:10.193Z,0.8
2023-01-23T07:24:10.076Z,0.7
2023-01-23T07:27:10.148Z,0.8
2023-01-23T07:30:10.349Z,0.8
2023-01-23T07:33:10.121Z,0.8
2023-01-23T07:36:10.228Z,0.8
2023-01-23T07:39:10.202Z,0.8
2023-01-23T07:42:10.177Z,0.8
2023-01-23T07:45:10.178Z,0.8
2023-01-23T07:48:10.133Z,0.8
2023-01-23T07:51:10.617Z,0.8
2023-01-23T07:54:10.020Z,0.8
2023-01-23T07:57:10.141Z,0.8
2023-01-23T08:00:10.222Z,0.8
2023-01-23T08:03:10.196Z,0.8
2023-01-23T08:06:10.202Z,0.8
2023-01-23T08:09:10.158Z,0.9
2023-01-23T08:12:10.097Z,0.9
2023-01-23T08:15:10.099Z,0.9
2023-01-23T08:18:10.294Z,0.9
2023-01-23T08:21:10.104Z,0.9
2023-01-23T08:24:10.060Z,0.9
2023-01-23T08:27:10.127Z,0.9
2023-01-23T08:30:10.311Z,0.9
2023-01-23T08:33:10.108Z,0.9
2023-01-23T08:36:12.448Z,0.9
2023-01-23T08:39:10.154Z,1
2023-01-23T08:42:10.210Z,1.1
2023-01-23T08:45:10.117Z,1.1
2023-01-23T08:48:10.197Z,1.1
2023-01-23T08:51:10.514Z,1.1
2023-01-23T08:54:10.235Z,1.1
2023-01-23T08:57:10.203Z,1.1
2023-01-23T09:00:10.152Z,1.1
2023-01-23T09:03:13.235Z,1.1
2023-01-23T09:06:10.212Z,1.1
2023-01-23T09:09:10.067Z,1.1
2023-01-23T09:12:10.236Z,1.2
2023-01-23T09:15:10.110Z,1.2
2023-01-23T09:18:10.113Z,1.2
2023-01-23T09:21:13.070Z,1.3
2023-01-23T09:24:10.174Z,1.3
2023-01-23T09:27:11.798Z,1.3
2023-01-23T09:30:11.198Z,1.3
2023-01-23T09:33:11.150Z,1.3
2023-01-23T09:36:10.553Z,1.3
2023-01-23T09:39:10.575Z,1.3
2023-01-23T09:42:12.743Z,1.3
2023-01-23T09:45:10.560Z,1.3
2023-01-23T09:48:11.255Z,1.3
2023-01-23T09:54:10.037Z,1.3
2023-01-23T09:57:10.062Z,1.3
2023-01-23T10:00:10.234Z,1.3
2023-01-23T10:03:10.052Z,1.3
2023-01-23T10:06:10.064Z,1.3
2023-01-23T10:09:10.007Z,1.3
2023-01-23T10:12:09.980Z,1.4
2023-01-23T10:15:09.980Z,1.4
2023-01-23T10:18:09.990Z,1.4
2023-01-23T10:21:10.205Z,1.4
2023-01-23T10:24:09.991Z,1.4
2023-01-23T10:27:10.029Z,1.5
2023-01-23T10:30:10.019Z,1.5
2023-01-23T10:33:10.066Z,1.5
2023-01-23T10:36:10.970Z,1.5
2023-01-23T10:39:10.169Z,1.6
2023-01-23T10:42:12.322Z,1.5
2023-01-23T10:45:09.967Z,1.5
2023-01-23T10:48:20.850Z,1.5
2023-01-23T10:51:10.439Z,1.4
2023-01-23T10:54:34.372Z,1.4
2023-01-23T10:57:10.275Z,1.4
2023-01-23T11:00:10.151Z,1.4
2023-01-23T11:03:10.582Z,1.4
2023-01-23T11:06:10.117Z,1.4
2023-01-23T11:09:10.133Z,1.4
2023-01-23T11:12:10.018Z,1.4
2023-01-23T11:15:09.973Z,1.4
2023-01-23T11:18:10.219Z,1.4
2023-01-23T11:21:10.141Z,1.4
2023-01-23T11:24:12.890Z,1.4
2023-01-23T11:27:09.972Z,1.5
2023-01-23T11:30:10.317Z,1.6
2023-01-23T11:33:10.031Z,1.6
2023-01-23T11:36:10.064Z,1.6
2023-01-23T11:39:10.174Z,1.6
2023-01-23T11:42:10.221Z,1.6
2023-01-23T11:45:10.037Z,1.6
2023-01-23T11:48:10.065Z,1.5
2023-01-23T11:51:10.333Z,1.6
2023-01-23T11:54:10.436Z,1.4
2023-01-23T11:57:10.105Z,1.5
2023-01-23T12:00:10.096Z,1.6
2023-01-23T12:03:10.454Z,1.6
2023-01-23T12:09:10.057Z,1.6
2023-01-23T12:12:10.108Z,1.6
2023-01-23T12:15:10.083Z,1.5
2023-01-23T12:21:10.038Z,1.5
2023-01-23T12:24:10.127Z,1.6
2023-01-23T12:27:10.127Z,1.6
2023-01-23T12:30:10.156Z,1.7
2023-01-23T12:33:10.097Z,1.6
2023-01-23T12:36:10.017Z,1.7
2023-01-23T12:39:10.063Z,1.6
2023-01-23T12:42:10.014Z,1.6
2023-01-23T12:45:10.015Z,1.6
2023-01-23T12:48:10.854Z,1.6
2023-01-23T12:51:11.212Z,1.7
2023-01-23T12:54:10.002Z,1.7
2023-01-23T12:57:10.068Z,1.7
2023-01-23T13:00:10.190Z,1.8
2023-01-23T13:03:10.178Z,1.8
2023-01-23T13:06:10.074Z,1.8
2023-01-23T13:09:27.528Z,1.8
2023-01-23T13:12:10.028Z,1.8
2023-01-23T13:15:43.182Z,1.8
2023-01-23T13:18:10.249Z,1.9
2023-01-23T13:21:10.037Z,1.9
2023-01-23T13:24:10.034Z,2
2023-01-23T13:27:11.279Z,2
2023-01-23T13:30:10.177Z,1.9
2023-01-23T13:33:10.254Z,1.9
2023-01-23T13:36:10.144Z,1.8
2023-01-23T13:39:10.037Z,1.8
2023-01-23T13:42:10.205Z,1.7
2023-01-23T13:45:10.034Z,1.6
2023-01-23T14:21:10.781Z,1.4
2023-01-23T14:24:10.099Z,1.4
2023-01-23T14:27:31.690Z,1.4
2023-01-23T14:30:10.162Z,1.4
2023-01-23T14:33:09.980Z,1.4
2023-01-23T14:36:10.117Z,1.4
2023-01-23T14:39:10.083Z,1.4
2023-01-23T14:42:27.690Z,1.3
2023-01-23T14:45:10.379Z,1.3
2023-01-23T14:48:16.363Z,1.3
2023-01-23T14:51:10.157Z,1.3
2023-01-23T14:54:18.099Z,1.3
2023-01-23T14:57:10.243Z,1.3
2023-01-23T15:00:10.331Z,1.3
2023-01-23T15:03:10.582Z,1.3
2023-01-23T15:06:10.109Z,1.3
2023-01-23T15:09:10.332Z,1.3
2023-01-23T15:12:10.134Z,1.3
2023-01-23T15:15:10.268Z,1.3
2023-01-23T15:18:10.780Z,1.3
2023-01-23T15:21:10.000Z,1.3
2023-01-23T15:24:10.461Z,1.3
2023-01-23T15:27:10.002Z,1.3
2023-01-23T15:30:10.059Z,1.3
2023-01-23T15:33:10.335Z,1.3
2023-01-23T15:36:10.051Z,1.2
2023-01-23T15:39:09.991Z,1.2
2023-01-23T15:42:10.183Z,1.2
2023-01-23T15:45:10.627Z,1.2
2023-01-23T15:48:10.064Z,1.2
2023-01-23T15:51:10.107Z,1.2
2023-01-23T15:54:09.983Z,1.2
2023-01-23T15:57:17.823Z,1.3
2023-01-23T16:00:10.416Z,1.2
2023-01-23T16:03:10.326Z,1.2
2023-01-23T16:06:12.217Z,1.2
2023-01-23T16:09:15.175Z,1.2
2023-01-23T16:12:12.183Z,1.1
2023-01-23T16:15:10.008Z,1.1
2023-01-23T16:18:12.822Z,1.1
2023-01-23T16:21:09.975Z,1.1
2023-01-23T16:24:12.469Z,1.1
2023-01-23T16:27:10.021Z,1.1
2023-01-23T16:30:10.050Z,1.1
2023-01-23T16:33:10.116Z,1.1
2023-01-23T16:36:09.959Z,1.1
2023-01-23T16:39:11.406Z,1.1
2023-01-23T16:42:10.100Z,1.1
2023-01-23T16:45:10.124Z,1.1
2023-01-23T16:48:26.667Z,1.1
2023-01-23T16:51:10.088Z,1.1
2023-01-23T16:54:27.752Z,1.1
2023-01-23T16:57:10.712Z,1.1
2023-01-23T17:00:10.055Z,1.1
2023-01-23T17:03:09.974Z,1.1
2023-01-23T17:06:10.532Z,1.1
2023-01-23T17:09:10.020Z,1.1
2023-01-23T17:12:09.910Z,1.1
2023-01-23T17:15:10.033Z,1.1
2023-01-23T17:18:10.043Z,1.1
2023-01-23T17:21:10.129Z,1.1
2023-01-23T17:24:10.595Z,1.1
2023-01-23T17:27:10.011Z,1.1
2023-01-23T17:30:09.961Z,1.1
2023-01-23T17:33:10.056Z,1.1
2023-01-23T17:36:10.092Z,1.1
2023-01-23T17:39:10.029Z,1.1
2023-01-23T17:42:09.953Z,1.1
2023-01-23T17:45:09.923Z,1
2023-01-23T17:48:11.471Z,1.1
2023-01-23T17:51:10.025Z,1
2023-01-23T17:54:09.887Z,1.1
2023-01-23T17:57:10.019Z,1
2023-01-23T18:00:10.110Z,1.1
2023-01-23T18:03:10.070Z,1.1
2023-01-23T18:06:10.024Z,1.1
2023-01-23T18:09:09.973Z,1.1
2023-01-23T18:12:09.927Z,1
2023-01-23T18:15:09.949Z,1.1
2023-01-23T18:18:10.008Z,1.1
2023-01-23T18:21:09.984Z,1
2023-01-23T18:24:10.715Z,1.1
2023-01-23T18:27:10.055Z,1.1
2023-01-23T18:30:10.174Z,1.1
2023-01-23T18:33:09.988Z,1
2023-01-23T18:36:09.987Z,1.1
2023-01-23T18:39:10.029Z,1.1
2023-01-23T18:42:09.980Z,1.1
2023-01-23T18:45:09.934Z,1.1
2023-01-23T18:48:28.473Z,1.1
2023-01-23T18:51:10.027Z,1.1
2023-01-23T18:54:09.957Z,1.1
2023-01-23T18:57:09.992Z,1.1
2023-01-23T19:00:10.127Z,1.1
2023-01-23T19:03:09.919Z,1.1
2023-01-23T19:06:09.986Z,1.1
2023-01-23T19:09:10.122Z,1
2023-01-23T19:12:27.481Z,0.9
2023-01-23T19:15:09.983Z,0.9
2023-01-23T19:18:09.961Z,0.9
2023-01-23T19:21:10.063Z,0.9
2023-01-23T19:24:10.374Z,0.9
2023-01-23T19:27:10.100Z,0.9
2023-01-23T19:30:09.964Z,0.9
2023-01-23T19:33:09.924Z,0.9
2023-01-23T19:36:10.020Z,0.9
2023-01-23T19:39:09.979Z,0.9
2023-01-23T19:42:10.060Z,1
2023-01-23T19:45:10.005Z,1.1
2023-01-23T19:48:09.993Z,1.1
2023-01-23T19:51:10.077Z,1.1
2023-01-23T19:54:10.011Z,1.1
2023-01-23T19:57:10.003Z,1.1
2023-01-23T20:00:10.182Z,1.1
2023-01-23T20:03:09.939Z,1.1
2023-01-23T20:06:10.007Z,1
2023-01-23T20:09:09.867Z,1
2023-01-23T20:12:10.012Z,1
2023-01-23T20:15:10.034Z,1
2023-01-23T20:18:09.995Z,1
2023-01-23T20:21:10.082Z,1
2023-01-23T20:24:11.983Z,0.9
2023-01-23T20:27:09.989Z,1
2023-01-23T20:30:10.036Z,0.9
2023-01-23T20:33:10.094Z,0.9
2023-01-23T20:36:09.912Z,1
2023-01-23T20:39:10.098Z,0.9
2023-01-23T20:42:11.643Z,0.9
2023-01-23T20:45:10.210Z,1
2023-01-23T20:48:09.926Z,0.9
2023-01-23T20:51:12.159Z,1
2023-01-23T20:54:09.971Z,1
2023-01-23T20:57:09.936Z,0.9
2023-01-23T21:00:10.095Z,1
2023-01-23T21:03:10.438Z,1
2023-01-23T21:06:09.988Z,1
2023-01-23T21:09:09.931Z,0.9
2023-01-23T21:12:10.059Z,0.9
2023-01-23T21:15:09.984Z,0.9
2023-01-23T21:18:09.972Z,0.9
2023-01-23T21:21:10.243Z,0.9
2023-01-23T21:24:10.579Z,0.9
2023-01-23T21:27:10.281Z,0.9
2023-01-23T21:30:09.937Z,0.9
2023-01-23T21:33:10.034Z,1
2023-01-23T21:36:10.002Z,0.9
2023-01-23T21:39:12.499Z,0.9
2023-01-23T21:42:09.988Z,0.9
2023-01-23T21:45:10.287Z,0.9
2023-01-23T21:48:10.133Z,0.9
2023-01-23T21:51:09.979Z,0.9
2023-01-23T21:54:10.132Z,0.9
2023-01-23T21:57:09.992Z,0.9
2023-01-23T22:00:11.091Z,0.9
2023-01-23T22:03:10.081Z,0.9
2023-01-23T22:06:09.904Z,0.9
2023-01-23T22:09:10.041Z,0.9
2023-01-23T22:12:10.002Z,0.9
2023-01-23T22:15:09.996Z,0.9
2023-01-23T22:18:09.999Z,0.9
2023-01-23T22:21:09.989Z,0.9
2023-01-23T22:24:10.455Z,0.9
2023-01-23T22:27:09.947Z,0.9
2023-01-23T22:30:10.125Z,0.9
2023-01-23T22:33:09.998Z,0.9
2023-01-23T22:36:09.921Z,0.9
2023-01-23T22:39:10.035Z,0.9
2023-01-23T22:42:10.082Z,0.9
2023-01-23T22:45:09.995Z,0.9
2023-01-23T22:48:09.955Z,0.9
2023-01-23T22:51:09.986Z,0.9
2023-01-23T22:54:09.996Z,0.9
2023-01-23T22:57:09.992Z,0.9
2023-01-23T23:00:11.260Z,0.9
2023-01-23T23:03:09.961Z,0.9
2023-01-23T23:06:09.944Z,0.9
2023-01-23T23:09:10.036Z,0.9
2023-01-23T23:12:09.987Z,0.9
2023-01-23T23:15:09.959Z,0.9
2023-01-23T23:18:10.022Z,0.9
2023-01-23T23:21:10.166Z,0.9
2023-01-23T23:24:10.469Z,0.9
2023-01-23T23:27:09.941Z,1
2023-01-23T23:30:10.067Z,1
2023-01-23T23:33:10.174Z,1
2023-01-23T23:36:10.030Z,1
2023-01-23T23:39:09.906Z,1
2023-01-23T23:42:09.985Z,0.9
2023-01-23T23:45:09.970Z,0.9
2023-01-23T23:48:09.982Z,0.9
2023-01-23T23:51:09.973Z,0.9
2023-01-23T23:54:10.002Z,0.8
2023-01-23T23:57:10.056Z,0.8
